sensor_id;sensor_type;location;lat;lon;timestamp;pressure;altitude;pressure_sealevel;temperature;humidity
62849;BME280;48941;49.516;8.286;2023-01-25T00:00:43;102277.22;;;1.85;96.09
62849;BME280;48941;49.516;8.286;2023-01-25T00:03:12;102273.75;;;1.83;95.93
62849;BME280;48941;49.516;8.286;2023-01-25T00:05:40;102272.91;;;1.79;96.36
62849;BME280;48941;49.516;8.286;2023-01-25T00:08:08;102266.72;;;1.84;96.23
62849;BME280;48941;49.516;8.286;2023-01-25T00:10:37;102268.56;;;1.78;96.27
62849;BME280;48941;49.516;8.286;2023-01-25T00:13:04;102278.16;;;1.83;96.17
62849;BME280;48941;49.516;8.286;2023-01-25T00:15:32;102270.25;;;1.83;96.29
62849;BME280;48941;49.516;8.286;2023-01-25T00:18:00;102258.84;;;1.85;96.27
62849;BME280;48941;49.516;8.286;2023-01-25T00:20:29;102260.53;;;1.89;96.26
62849;BME280;48941;49.516;8.286;2023-01-25T00:22:57;102260.50;;;1.92;95.95
62849;BME280;48941;49.516;8.286;2023-01-25T00:25:24;102260.50;;;1.92;96.11
62849;BME280;48941;49.516;8.286;2023-01-25T00:27:52;102258.75;;;1.91;95.82
62849;BME280;48941;49.516;8.286;2023-01-25T00:30:20;102257.88;;;1.91;95.94
62849;BME280;48941;49.516;8.286;2023-01-25T00:32:52;102245.69;;;1.87;95.87
62849;BME280;48941;49.516;8.286;2023-01-25T00:35:20;102247.47;;;1.85;95.87
62849;BME280;48941;49.516;8.286;2023-01-25T00:37:51;102243.91;;;1.89;95.98
62849;BME280;48941;49.516;8.286;2023-01-25T00:40:20;102246.50;;;1.92;95.90
62849;BME280;48941;49.516;8.286;2023-01-25T00:42:48;102243.03;;;1.88;96.11
62849;BME280;48941;49.516;8.286;2023-01-25T00:45:16;102236.88;;;1.91;96.10
62849;BME280;48941;49.516;8.286;2023-01-25T00:47:44;102240.34;;;1.91;95.98
62849;BME280;48941;49.516;8.286;2023-01-25T00:50:12;102238.63;;;1.92;96.20
62849;BME280;48941;49.516;8.286;2023-01-25T00:52:40;102237.72;;;1.93;96.29
62849;BME280;48941;49.516;8.286;2023-01-25T00:55:09;102235.06;;;1.94;96.31
62849;BME280;48941;49.516;8.286;2023-01-25T00:57:37;102230.66;;;1.95;96.32
62849;BME280;48941;49.516;8.286;2023-01-25T01:00:05;102233.28;;;1.95;96.38
62849;BME280;48941;49.516;8.286;2023-01-25T01:02:33;102228.94;;;1.94;96.50
62849;BME280;48941;49.516;8.286;2023-01-25T01:05:01;102233.34;;;1.92;96.72
62849;BME280;48941;49.516;8.286;2023-01-25T01:07:29;102222.84;;;1.92;96.75
62849;BME280;48941;49.516;8.286;2023-01-25T01:09:57;102222.84;;;1.92;96.86
62849;BME280;48941;49.516;8.286;2023-01-25T01:12:27;102221.06;;;1.92;96.69
62849;BME280;48941;49.516;8.286;2023-01-25T01:14:54;102213.19;;;1.92;96.84
62849;BME280;48941;49.516;8.286;2023-01-25T01:17:23;102209.75;;;1.89;97.03
62849;BME280;48941;49.516;8.286;2023-01-25T01:19:50;102221.16;;;1.86;97.12
62849;BME280;48941;49.516;8.286;2023-01-25T01:22:18;102213.28;;;1.88;97.32
62849;BME280;48941;49.516;8.286;2023-01-25T01:24:46;102219.41;;;1.87;97.39
62849;BME280;48941;49.516;8.286;2023-01-25T01:27:14;102215.94;;;1.85;97.59
62849;BME280;48941;49.516;8.286;2023-01-25T01:29:43;102217.66;;;1.86;97.71
62849;BME280;48941;49.516;8.286;2023-01-25T01:32:11;102221.16;;;1.86;97.66
62849;BME280;48941;49.516;8.286;2023-01-25T01:34:39;102215.91;;;1.86;97.73
62849;BME280;48941;49.516;8.286;2023-01-25T01:37:06;102222.91;;;1.86;97.99
62849;BME280;48941;49.516;8.286;2023-01-25T01:39:34;102222.03;;;1.87;97.76
62849;BME280;48941;49.516;8.286;2023-01-25T01:42:03;102215.00;;;1.87;98.04
62849;BME280;48941;49.516;8.286;2023-01-25T01:44:45;102218.53;;;1.86;98.08
62849;BME280;48941;49.516;8.286;2023-01-25T01:47:17;102210.69;;;1.85;97.88
62849;BME280;48941;49.516;8.286;2023-01-25T01:49:50;102211.53;;;1.85;97.82
62849;BME280;48941;49.516;8.286;2023-01-25T01:52:22;102207.19;;;1.83;97.94
62849;BME280;48941;49.516;8.286;2023-01-25T01:54:54;102202.81;;;1.83;97.88
62849;BME280;48941;49.516;8.286;2023-01-25T01:57:25;102205.44;;;1.83;97.92
62849;BME280;48941;49.516;8.286;2023-01-25T01:59:59;102208.94;;;1.84;97.87
62849;BME280;48941;49.516;8.286;2023-01-25T02:02:29;102211.63;;;1.79;97.85
62849;BME280;48941;49.516;8.286;2023-01-25T02:04:59;102199.41;;;1.78;98.11
62849;BME280;48941;49.516;8.286;2023-01-25T02:07:31;102205.44;;;1.82;97.89
62849;BME280;48941;49.516;8.286;2023-01-25T02:10:01;102206.34;;;1.81;97.61
62849;BME280;48941;49.516;8.286;2023-01-25T02:12:29;102201.13;;;1.79;97.83
62849;BME280;48941;49.516;8.286;2023-01-25T02:14:58;102206.38;;;1.79;97.86
62849;BME280;48941;49.516;8.286;2023-01-25T02:17:28;102205.53;;;1.77;97.79
62849;BME280;48941;49.516;8.286;2023-01-25T02:20:00;102194.09;;;1.81;98.06
62849;BME280;48941;49.516;8.286;2023-01-25T02:22:32;102200.25;;;1.78;97.51
62849;BME280;48941;49.516;8.286;2023-01-25T02:25:07;102200.28;;;1.75;97.53
62849;BME280;48941;49.516;8.286;2023-01-25T02:27:37;102197.72;;;1.74;97.63
62849;BME280;48941;49.516;8.286;2023-01-25T02:30:07;102196.81;;;1.75;97.86
62849;BME280;48941;49.516;8.286;2023-01-25T02:32:35;102196.81;;;1.75;97.81
62849;BME280;48941;49.516;8.286;2023-01-25T02:35:03;102205.53;;;1.75;97.60
62849;BME280;48941;49.516;8.286;2023-01-25T02:37:32;102197.66;;;1.75;97.86
62849;BME280;48941;49.516;8.286;2023-01-25T02:40:00;102184.53;;;1.75;97.85
62849;BME280;48941;49.516;8.286;2023-01-25T02:42:30;102188.88;;;1.78;97.90
62849;BME280;48941;49.516;8.286;2023-01-25T02:44:58;102184.50;;;1.77;97.66
62849;BME280;48941;49.516;8.286;2023-01-25T02:47:26;102182.75;;;1.77;97.78
62849;BME280;48941;49.516;8.286;2023-01-25T02:49:54;102186.22;;;1.79;97.65
62849;BME280;48941;49.516;8.286;2023-01-25T02:52:21;102183.59;;;1.79;97.71
62849;BME280;48941;49.516;8.286;2023-01-25T02:54:49;102188.03;;;1.76;97.82
62849;BME280;48941;49.516;8.286;2023-01-25T02:57:17;102183.66;;;1.75;97.77
62849;BME280;48941;49.516;8.286;2023-01-25T02:59:49;102181.03;;;1.76;97.74
62849;BME280;48941;49.516;8.286;2023-01-25T03:02:16;102180.09;;;1.79;97.38
62849;BME280;48941;49.516;8.286;2023-01-25T03:04:44;102171.34;;;1.78;97.17
62849;BME280;48941;49.516;8.286;2023-01-25T03:07:12;102182.75;;;1.77;97.16
62849;BME280;48941;49.516;8.286;2023-01-25T03:09:40;102177.53;;;1.76;97.38
62849;BME280;48941;49.516;8.286;2023-01-25T03:12:07;102181.88;;;1.77;97.46
62849;BME280;48941;49.516;8.286;2023-01-25T03:14:35;102176.66;;;1.75;97.36
62849;BME280;48941;49.516;8.286;2023-01-25T03:17:04;102181.97;;;1.72;97.46
62849;BME280;48941;49.516;8.286;2023-01-25T03:19:32;102185.50;;;1.70;97.37
62849;BME280;48941;49.516;8.286;2023-01-25T03:22:00;102183.75;;;1.70;97.49
62849;BME280;48941;49.516;8.286;2023-01-25T03:24:28;102181.13;;;1.70;97.46
62849;BME280;48941;49.516;8.286;2023-01-25T03:26:56;102169.75;;;1.70;97.47
62849;BME280;48941;49.516;8.286;2023-01-25T03:29:39;102173.25;;;1.69;97.62
62849;BME280;48941;49.516;8.286;2023-01-25T03:32:09;102167.13;;;1.68;97.35
62849;BME280;48941;49.516;8.286;2023-01-25T03:34:37;102163.56;;;1.72;97.37
62849;BME280;48941;49.516;8.286;2023-01-25T03:37:05;102172.38;;;1.70;97.54
62849;BME280;48941;49.516;8.286;2023-01-25T03:39:33;102168.91;;;1.66;97.75
62849;BME280;48941;49.516;8.286;2023-01-25T03:42:01;102168.94;;;1.65;97.74
62849;BME280;48941;49.516;8.286;2023-01-25T03:44:29;102171.56;;;1.65;97.88
62849;BME280;48941;49.516;8.286;2023-01-25T03:46:57;102170.72;;;1.61;97.99
62849;BME280;48941;49.516;8.286;2023-01-25T03:49:26;102168.16;;;1.58;98.36
62849;BME280;48941;49.516;8.286;2023-01-25T03:51:54;102169.88;;;1.59;98.57
62849;BME280;48941;49.516;8.286;2023-01-25T03:54:23;102164.63;;;1.59;98.34
62849;BME280;48941;49.516;8.286;2023-01-25T03:56:51;102162.00;;;1.59;98.45
62849;BME280;48941;49.516;8.286;2023-01-25T03:59:18;102165.53;;;1.58;98.51
62849;BME280;48941;49.516;8.286;2023-01-25T04:01:46;102165.47;;;1.61;98.56
62849;BME280;48941;49.516;8.286;2023-01-25T04:04:14;102164.59;;;1.62;98.39
62849;BME280;48941;49.516;8.286;2023-01-25T04:06:43;102162.00;;;1.61;98.29
62849;BME280;48941;49.516;8.286;2023-01-25T04:09:11;102162.00;;;1.59;98.49
62849;BME280;48941;49.516;8.286;2023-01-25T04:11:40;102164.66;;;1.57;98.61
62849;BME280;48941;49.516;8.286;2023-01-25T04:14:09;102161.16;;;1.58;99.04
62849;BME280;48941;49.516;8.286;2023-01-25T04:16:37;102167.31;;;1.56;99.20
62849;BME280;48941;49.516;8.286;2023-01-25T04:19:05;102163.84;;;1.54;99.13
62849;BME280;48941;49.516;8.286;2023-01-25T04:21:32;102158.59;;;1.54;99.30
62849;BME280;48941;49.516;8.286;2023-01-25T04:24:02;102155.91;;;1.55;99.36
62849;BME280;48941;49.516;8.286;2023-01-25T04:26:30;102158.53;;;1.55;98.96
62849;BME280;48941;49.516;8.286;2023-01-25T04:28:57;102145.47;;;1.52;99.23
62849;BME280;48941;49.516;8.286;2023-01-25T04:31:25;102152.50;;;1.52;99.45
62849;BME280;48941;49.516;8.286;2023-01-25T04:33:54;102154.19;;;1.54;99.40
62849;BME280;48941;49.516;8.286;2023-01-25T04:36:21;102144.56;;;1.53;99.50
62849;BME280;48941;49.516;8.286;2023-01-25T04:38:49;102149.88;;;1.52;99.63
62849;BME280;48941;49.516;8.286;2023-01-25T04:41:18;102142.94;;;1.46;99.95
62849;BME280;48941;49.516;8.286;2023-01-25T04:43:46;102146.44;;;1.47;100.00
62849;BME280;48941;49.516;8.286;2023-01-25T04:46:14;102149.13;;;1.42;100.00
62849;BME280;48941;49.516;8.286;2023-01-25T04:48:42;102148.22;;;1.45;100.00
62849;BME280;48941;49.516;8.286;2023-01-25T04:51:09;102151.69;;;1.45;100.00
62849;BME280;48941;49.516;8.286;2023-01-25T04:53:37;102156.13;;;1.42;100.00
62849;BME280;48941;49.516;8.286;2023-01-25T04:56:05;102155.31;;;1.36;100.00
62849;BME280;48941;49.516;8.286;2023-01-25T04:58:35;102147.44;;;1.36;100.00
62849;BME280;48941;49.516;8.286;2023-01-25T05:01:03;102148.31;;;1.35;100.00
62849;BME280;48941;49.516;8.286;2023-01-25T05:03:31;102146.53;;;1.39;100.00
62849;BME280;48941;49.516;8.286;2023-01-25T05:05:59;102148.28;;;1.38;100.00
62849;BME280;48941;49.516;8.286;2023-01-25T05:08:27;102146.59;;;1.34;100.00
62849;BME280;48941;49.516;8.286;2023-01-25T05:10:54;102153.63;;;1.32;100.00
62849;BME280;48941;49.516;8.286;2023-01-25T05:13:22;102137.88;;;1.32;100.00
62849;BME280;48941;49.516;8.286;2023-01-25T05:15:51;102137.88;;;1.32;100.00
62849;BME280;48941;49.516;8.286;2023-01-25T05:18:19;102139.66;;;1.32;100.00
62849;BME280;48941;49.516;8.286;2023-01-25T05:20:47;102135.25;;;1.32;100.00
62849;BME280;48941;49.516;8.286;2023-01-25T05:23:14;102132.63;;;1.32;100.00
62849;BME280;48941;49.516;8.286;2023-01-25T05:25:42;102130.00;;;1.34;100.00
62849;BME280;48941;49.516;8.286;2023-01-25T05:28:33;102135.25;;;1.34;100.00
62849;BME280;48941;49.516;8.286;2023-01-25T05:31:04;102124.78;;;1.29;100.00
62849;BME280;48941;49.516;8.286;2023-01-25T05:33:32;102129.19;;;1.27;100.00
62849;BME280;48941;49.516;8.286;2023-01-25T05:35:59;102117.81;;;1.27;100.00
62849;BME280;48941;49.516;8.286;2023-01-25T05:38:28;102123.94;;;1.27;100.00
62849;BME280;48941;49.516;8.286;2023-01-25T05:40:57;102107.31;;;1.27;100.00
62849;BME280;48941;49.516;8.286;2023-01-25T05:43:24;102109.94;;;1.28;100.00
62849;BME280;48941;49.516;8.286;2023-01-25T05:45:52;102110.81;;;1.27;100.00
62849;BME280;48941;49.516;8.286;2023-01-25T05:48:21;102112.56;;;1.28;100.00
62849;BME280;48941;49.516;8.286;2023-01-25T05:50:49;102098.59;;;1.26;100.00
62849;BME280;48941;49.516;8.286;2023-01-25T05:53:17;102109.09;;;1.26;100.00
62849;BME280;48941;49.516;8.286;2023-01-25T05:55:45;102104.69;;;1.27;100.00
62849;BME280;48941;49.516;8.286;2023-01-25T05:58:13;102098.59;;;1.26;100.00
62849;BME280;48941;49.516;8.286;2023-01-25T06:00:40;102099.47;;;1.24;100.00
62849;BME280;48941;49.516;8.286;2023-01-25T06:03:08;102101.25;;;1.23;100.00
62849;BME280;48941;49.516;8.286;2023-01-25T06:05:37;102097.78;;;1.21;100.00
62849;BME280;48941;49.516;8.286;2023-01-25T06:08:05;102093.44;;;1.20;100.00
62849;BME280;48941;49.516;8.286;2023-01-25T06:10:33;102101.31;;;1.18;100.00
62849;BME280;48941;49.516;8.286;2023-01-25T06:13:01;102096.94;;;1.19;100.00
62849;BME280;48941;49.516;8.286;2023-01-25T06:15:29;102099.56;;;1.17;100.00
62849;BME280;48941;49.516;8.286;2023-01-25T06:17:57;102101.25;;;1.22;100.00
62849;BME280;48941;49.516;8.286;2023-01-25T06:20:24;102094.31;;;1.19;100.00
62849;BME280;48941;49.516;8.286;2023-01-25T06:22:53;102102.19;;;1.17;100.00
62849;BME280;48941;49.516;8.286;2023-01-25T06:25:21;102101.31;;;1.18;100.00
62849;BME280;48941;49.516;8.286;2023-01-25T06:27:49;102097.00;;;1.16;100.00
62849;BME280;48941;49.516;8.286;2023-01-25T06:30:17;102097.00;;;1.14;100.00
62849;BME280;48941;49.516;8.286;2023-01-25T06:32:45;102099.63;;;1.13;100.00
62849;BME280;48941;49.516;8.286;2023-01-25T06:35:13;102108.34;;;1.15;100.00
62849;BME280;48941;49.516;8.286;2023-01-25T06:37:40;102110.06;;;1.17;100.00
62849;BME280;48941;49.516;8.286;2023-01-25T06:40:11;102116.22;;;1.18;100.00
62849;BME280;48941;49.516;8.286;2023-01-25T06:42:38;102112.75;;;1.16;100.00
62849;BME280;48941;49.516;8.286;2023-01-25T06:45:07;102108.34;;;1.15;100.00
62849;BME280;48941;49.516;8.286;2023-01-25T06:47:36;102107.50;;;1.14;100.00
62849;BME280;48941;49.516;8.286;2023-01-25T06:50:04;102107.44;;;1.17;100.00
62849;BME280;48941;49.516;8.286;2023-01-25T06:52:32;102110.97;;;1.15;100.00
62849;BME280;48941;49.516;8.286;2023-01-25T06:55:02;102109.19;;;1.18;100.00
62849;BME280;48941;49.516;8.286;2023-01-25T06:57:31;102110.88;;;1.23;100.00
62849;BME280;48941;49.516;8.286;2023-01-25T06:59:59;102114.44;;;1.20;100.00
62849;BME280;48941;49.516;8.286;2023-01-25T07:02:27;102113.53;;;1.21;100.00
62849;BME280;48941;49.516;8.286;2023-01-25T07:04:55;102109.19;;;1.18;100.00
62849;BME280;48941;49.516;8.286;2023-01-25T07:07:22;102109.19;;;1.18;100.00
62849;BME280;48941;49.516;8.286;2023-01-25T07:09:50;102108.34;;;1.18;100.00
62849;BME280;48941;49.516;8.286;2023-01-25T07:12:18;102102.19;;;1.19;100.00
62849;BME280;48941;49.516;8.286;2023-01-25T07:14:47;102110.91;;;1.21;100.00
62849;BME280;48941;49.516;8.286;2023-01-25T07:17:15;102099.56;;;1.17;100.00
62849;BME280;48941;49.516;8.286;2023-01-25T07:19:42;102100.47;;;1.15;100.00
62849;BME280;48941;49.516;8.286;2023-01-25T07:22:10;102106.56;;;1.18;100.00
62849;BME280;48941;49.516;8.286;2023-01-25T07:24:38;102095.16;;;1.19;100.00
62849;BME280;48941;49.516;8.286;2023-01-25T07:27:06;102088.13;;;1.22;100.00
62849;BME280;48941;49.516;8.286;2023-01-25T07:29:34;102091.59;;;1.25;100.00
62849;BME280;48941;49.516;8.286;2023-01-25T07:32:03;102095.91;;;1.28;100.00
62849;BME280;48941;49.516;8.286;2023-01-25T07:34:32;102086.31;;;1.28;100.00
62849;BME280;48941;49.516;8.286;2023-01-25T07:36:59;102088.88;;;1.31;100.00
62849;BME280;48941;49.516;8.286;2023-01-25T07:39:27;102092.41;;;1.29;100.00
62849;BME280;48941;49.516;8.286;2023-01-25T07:41:55;102088.09;;;1.26;100.00
62849;BME280;48941;49.516;8.286;2023-01-25T07:44:23;102085.38;;;1.31;100.00
62849;BME280;48941;49.516;8.286;2023-01-25T07:46:52;102091.47;;;1.34;100.00
62849;BME280;48941;49.516;8.286;2023-01-25T07:49:21;102095.78;;;1.38;100.00
62849;BME280;48941;49.516;8.286;2023-01-25T07:51:49;102096.53;;;1.47;100.00
62849;BME280;48941;49.516;8.286;2023-01-25T07:54:17;102100.84;;;1.52;100.00
62849;BME280;48941;49.516;8.286;2023-01-25T07:56:45;102094.63;;;1.58;100.00
62849;BME280;48941;49.516;8.286;2023-01-25T07:59:12;102090.97;;;1.67;100.00
62849;BME280;48941;49.516;8.286;2023-01-25T08:01:40;102095.38;;;1.66;100.00
62849;BME280;48941;49.516;8.286;2023-01-25T08:04:08;102094.41;;;1.72;100.00
62849;BME280;48941;49.516;8.286;2023-01-25T08:06:38;102098.72;;;1.74;100.00
62849;BME280;48941;49.516;8.286;2023-01-25T08:09:09;102099.66;;;1.72;100.00
62849;BME280;48941;49.516;8.286;2023-01-25T08:11:38;102097.91;;;1.72;100.00
62849;BME280;48941;49.516;8.286;2023-01-25T08:14:06;102099.59;;;1.75;100.00
62849;BME280;48941;49.516;8.286;2023-01-25T08:16:34;102092.63;;;1.72;100.00
62849;BME280;48941;49.516;8.286;2023-01-25T08:19:02;102094.34;;;1.73;100.00
62849;BME280;48941;49.516;8.286;2023-01-25T08:21:31;102088.22;;;1.74;100.00
62849;BME280;48941;49.516;8.286;2023-01-25T08:24:02;102089.91;;;1.78;100.00
62849;BME280;48941;49.516;8.286;2023-01-25T08:26:33;102084.69;;;1.77;100.00
62849;BME280;48941;49.516;8.286;2023-01-25T08:29:01;102082.03;;;1.78;100.00
62849;BME280;48941;49.516;8.286;2023-01-25T08:31:31;102082.03;;;1.77;100.00
62849;BME280;48941;49.516;8.286;2023-01-25T08:34:00;102081.22;;;1.75;100.00
62849;BME280;48941;49.516;8.286;2023-01-25T08:36:27;102083.00;;;1.73;100.00
62849;BME280;48941;49.516;8.286;2023-01-25T08:38:57;102082.97;;;1.74;100.00
62849;BME280;48941;49.516;8.286;2023-01-25T08:41:27;102083.91;;;1.72;100.00
62849;BME280;48941;49.516;8.286;2023-01-25T08:43:56;102077.81;;;1.70;100.00
62849;BME280;48941;49.516;8.286;2023-01-25T08:46:27;102084.78;;;1.69;100.00
62849;BME280;48941;49.516;8.286;2023-01-25T08:48:58;102069.09;;;1.66;100.00
62849;BME280;48941;49.516;8.286;2023-01-25T08:51:26;102076.03;;;1.70;100.00
62849;BME280;48941;49.516;8.286;2023-01-25T08:53:54;102072.56;;;1.70;100.00
62849;BME280;48941;49.516;8.286;2023-01-25T08:56:22;102071.59;;;1.74;100.00
62849;BME280;48941;49.516;8.286;2023-01-25T08:58:51;102071.50;;;1.80;100.00
62849;BME280;48941;49.516;8.286;2023-01-25T09:01:19;102062.78;;;1.78;100.00
62849;BME280;48941;49.516;8.286;2023-01-25T09:03:48;102065.44;;;1.75;100.00
62849;BME280;48941;49.516;8.286;2023-01-25T09:06:17;102066.38;;;1.71;100.00
62849;BME280;48941;49.516;8.286;2023-01-25T09:08:46;102056.81;;;1.67;100.00
62849;BME280;48941;49.516;8.286;2023-01-25T09:11:16;102061.13;;;1.71;100.00
62849;BME280;48941;49.516;8.286;2023-01-25T09:13:47;102062.94;;;1.66;100.00
62849;BME280;48941;49.516;8.286;2023-01-25T09:16:18;102062.06;;;1.67;100.00
62849;BME280;48941;49.516;8.286;2023-01-25T09:18:48;102064.72;;;1.67;100.00
62849;BME280;48941;49.516;8.286;2023-01-25T09:21:17;102055.97;;;1.66;99.83
62849;BME280;48941;49.516;8.286;2023-01-25T09:23:47;102063.94;;;1.60;99.14
62849;BME280;48941;49.516;8.286;2023-01-25T09:26:29;102057.84;;;1.58;99.09
62849;BME280;48941;49.516;8.286;2023-01-25T09:28:58;102057.91;;;1.53;99.14
62849;BME280;48941;49.516;8.286;2023-01-25T09:31:27;102056.16;;;1.54;99.47
62849;BME280;48941;49.516;8.286;2023-01-25T09:33:56;102056.09;;;1.57;99.24
62849;BME280;48941;49.516;8.286;2023-01-25T09:36:24;102061.34;;;1.58;99.25
62849;BME280;48941;49.516;8.286;2023-01-25T09:38:52;102063.94;;;1.60;99.55
62849;BME280;48941;49.516;8.286;2023-01-25T09:41:39;102066.56;;;1.60;99.07
62849;BME280;48941;49.516;8.286;2023-01-25T09:44:29;102058.72;;;1.57;98.94
62849;BME280;48941;49.516;8.286;2023-01-25T09:47:11;102056.19;;;1.52;98.59
62849;BME280;48941;49.516;8.286;2023-01-25T09:49:54;102058.88;;;1.48;98.56
62849;BME280;48941;49.516;8.286;2023-01-25T09:52:45;102060.72;;;1.43;98.81
62849;BME280;48941;49.516;8.286;2023-01-25T09:55:21;102055.31;;;1.52;98.56
62849;BME280;48941;49.516;8.286;2023-01-25T09:57:52;102060.63;;;1.49;97.95
62849;BME280;48941;49.516;8.286;2023-01-25T10:00:27;102057.28;;;1.37;98.64
62849;BME280;48941;49.516;8.286;2023-01-25T10:03:02;102050.34;;;1.33;98.71
62849;BME280;48941;49.516;8.286;2023-01-25T10:05:39;102057.22;;;1.42;98.30
62849;BME280;48941;49.516;8.286;2023-01-25T10:08:17;102051.16;;;1.38;98.20
62849;BME280;48941;49.516;8.286;2023-01-25T10:10:51;102049.41;;;1.37;97.81
62849;BME280;48941;49.516;8.286;2023-01-25T10:13:23;102048.56;;;1.35;98.40
62849;BME280;48941;49.516;8.286;2023-01-25T10:16:02;102040.53;;;1.45;98.38
62849;BME280;48941;49.516;8.286;2023-01-25T10:18:47;102039.63;;;1.46;98.22
62849;BME280;48941;49.516;8.286;2023-01-25T10:21:25;102036.06;;;1.50;98.19
62849;BME280;48941;49.516;8.286;2023-01-25T10:24:22;102040.44;;;1.51;98.24
62849;BME280;48941;49.516;8.286;2023-01-25T10:26:55;102034.31;;;1.52;97.66
62849;BME280;48941;49.516;8.286;2023-01-25T10:29:26;102023.75;;;1.53;97.90
62849;BME280;48941;49.516;8.286;2023-01-25T10:31:58;102021.09;;;1.58;97.63
62849;BME280;48941;49.516;8.286;2023-01-25T10:34:32;102021.09;;;1.58;97.23
62849;BME280;48941;49.516;8.286;2023-01-25T10:37:21;102021.03;;;1.59;97.46
62849;BME280;48941;49.516;8.286;2023-01-25T10:39:55;102019.22;;;1.63;97.08
62849;BME280;48941;49.516;8.286;2023-01-25T10:42:26;102013.94;;;1.66;97.22
62849;BME280;48941;49.516;8.286;2023-01-25T10:44:56;102011.31;;;1.65;96.69
62849;BME280;48941;49.516;8.286;2023-01-25T10:47:26;102014.03;;;1.60;96.53
62849;BME280;48941;49.516;8.286;2023-01-25T10:49:57;101998.31;;;1.57;96.45
62849;BME280;48941;49.516;8.286;2023-01-25T10:52:27;101987.88;;;1.54;96.16
62849;BME280;48941;49.516;8.286;2023-01-25T10:55:12;101987.06;;;1.50;96.47
62849;BME280;48941;49.516;8.286;2023-01-25T10:57:42;101979.22;;;1.47;96.95
62849;BME280;48941;49.516;8.286;2023-01-25T11:00:23;101982.81;;;1.42;97.10
62849;BME280;48941;49.516;8.286;2023-01-25T11:02:56;101978.38;;;1.45;97.06
62849;BME280;48941;49.516;8.286;2023-01-25T11:05:28;101972.28;;;1.43;97.50
62849;BME280;48941;49.516;8.286;2023-01-25T11:07:57;101971.38;;;1.46;97.70
62849;BME280;48941;49.516;8.286;2023-01-25T11:10:31;101968.78;;;1.44;97.22
62849;BME280;48941;49.516;8.286;2023-01-25T11:13:19;101961.78;;;1.45;97.23
62849;BME280;48941;49.516;8.286;2023-01-25T11:15:49;101959.06;;;1.48;97.86
62849;BME280;48941;49.516;8.286;2023-01-25T11:18:20;101966.06;;;1.50;97.44
62849;BME280;48941;49.516;8.286;2023-01-25T11:21:04;101952.81;;;1.56;96.69
62849;BME280;48941;49.516;8.286;2023-01-25T11:23:32;101954.66;;;1.51;96.32
62849;BME280;48941;49.516;8.286;2023-01-25T11:26:11;101944.16;;;1.50;96.97
62849;BME280;48941;49.516;8.286;2023-01-25T11:28:39;101940.66;;;1.51;97.05
62849;BME280;48941;49.516;8.286;2023-01-25T11:31:10;101933.56;;;1.56;96.75
62849;BME280;48941;49.516;8.286;2023-01-25T11:33:39;101939.69;;;1.56;96.69
62849;BME280;48941;49.516;8.286;2023-01-25T11:36:19;101925.75;;;1.53;96.70
62849;BME280;48941;49.516;8.286;2023-01-25T11:39:12;101922.31;;;1.48;97.03
62849;BME280;48941;49.516;8.286;2023-01-25T11:41:57;101913.66;;;1.43;97.56
62849;BME280;48941;49.516;8.286;2023-01-25T11:45:02;101912.75;;;1.44;97.75
62849;BME280;48941;49.516;8.286;2023-01-25T11:47:44;101901.34;;;1.46;97.98
62849;BME280;48941;49.516;8.286;2023-01-25T11:50:23;101896.97;;;1.45;98.47
62849;BME280;48941;49.516;8.286;2023-01-25T11:53:22;101895.19;;;1.49;98.31
62849;BME280;48941;49.516;8.286;2023-01-25T11:55:56;101887.34;;;1.46;98.23
62849;BME280;48941;49.516;8.286;2023-01-25T11:58:49;101885.50;;;1.52;98.06
62849;BME280;48941;49.516;8.286;2023-01-25T12:01:24;101881.13;;;1.50;97.58
62849;BME280;48941;49.516;8.286;2023-01-25T12:04:24;101876.91;;;1.43;97.27
62849;BME280;48941;49.516;8.286;2023-01-25T12:07:01;101869.84;;;1.46;97.62
62849;BME280;48941;49.516;8.286;2023-01-25T12:09:41;101870.75;;;1.44;97.59
62849;BME280;48941;49.516;8.286;2023-01-25T12:12:20;101866.28;;;1.49;97.65
62849;BME280;48941;49.516;8.286;2023-01-25T12:15:09;101866.28;;;1.49;97.94
62849;BME280;48941;49.516;8.286;2023-01-25T12:18:07;101853.94;;;1.54;98.02
62849;BME280;48941;49.516;8.286;2023-01-25T12:20:55;101853.88;;;1.57;97.83
62849;BME280;48941;49.516;8.286;2023-01-25T12:23:37;101850.41;;;1.55;97.12
62849;BME280;48941;49.516;8.286;2023-01-25T12:26:18;101834.63;;;1.56;96.88
62849;BME280;48941;49.516;8.286;2023-01-25T12:28:49;101838.97;;;1.57;96.84
62849;BME280;48941;49.516;8.286;2023-01-25T12:31:23;101824.09;;;1.58;96.34
62849;BME280;48941;49.516;8.286;2023-01-25T12:33:54;101817.91;;;1.61;96.48
62849;BME280;48941;49.516;8.286;2023-01-25T12:36:26;101807.44;;;1.59;96.28
62849;BME280;48941;49.516;8.286;2023-01-25T12:38:57;101802.16;;;1.61;95.77
62849;BME280;48941;49.516;8.286;2023-01-25T12:41:38;101790.88;;;1.55;95.61
62849;BME280;48941;49.516;8.286;2023-01-25T12:44:13;101787.25;;;1.61;96.22
62849;BME280;48941;49.516;8.286;2023-01-25T12:46:47;101783.75;;;1.62;95.84
62849;BME280;48941;49.516;8.286;2023-01-25T12:49:23;101782.09;;;1.58;95.74
62849;BME280;48941;49.516;8.286;2023-01-25T12:51:55;101779.50;;;1.55;96.12
62849;BME280;48941;49.516;8.286;2023-01-25T12:54:29;101766.34;;;1.58;95.96
62849;BME280;48941;49.516;8.286;2023-01-25T12:57:03;101767.91;;;1.65;95.73
62849;BME280;48941;49.516;8.286;2023-01-25T12:59:39;101761.84;;;1.62;95.10
62849;BME280;48941;49.516;8.286;2023-01-25T13:05:19;101753.13;;;1.61;95.20
62849;BME280;48941;49.516;8.286;2023-01-25T13:07:51;101755.78;;;1.59;95.47
62849;BME280;48941;49.516;8.286;2023-01-25T13:10:25;101753.13;;;1.59;96.09
62849;BME280;48941;49.516;8.286;2023-01-25T13:12:58;101749.63;;;1.61;96.30
62849;BME280;48941;49.516;8.286;2023-01-25T13:15:39;101751.34;;;1.62;96.02
62849;BME280;48941;49.516;8.286;2023-01-25T13:18:36;101747.06;;;1.57;96.39
62849;BME280;48941;49.516;8.286;2023-01-25T13:21:09;101746.22;;;1.55;96.12